Time;durP1;ratioP1;P1;durP2;ratioP2;P2;SDS_P1;SDS_P2;PMS_P1;PMS_P2;Temp;Humidity;BMP_temperature;BMP_pressure;BME280_temperature;BME280_humidity;BME280_pressure;Samples;Min_cycle;Max_cycle;Signal;HPM_P1;HPM_P2
2022/03/29 00:03:05;;;;;;;;;;;;;;;8.71;61.98438;101864.9;;;;-75
2022/03/29 00:08:00;;;;;;;;;;;;;;;8.69;61.96875;101861.5;;;;-76
2022/03/29 00:12:58;;;;;;;;;;;;;;;8.68;61.76953;101858.9;;;;-75
2022/03/29 00:17:56;;;;;;;;;;;;;;;8.67;61.64551;101856.3;;;;-76
2022/03/29 00:22:55;;;;;;;;;;;;;;;8.67;61.56738;101850.5;;;;-77
2022/03/29 00:23:07;;;;;;;18.7;7.6;;;;;;;;;;;;;-77
2022/03/29 00:27:59;;;;;;;;;;;;;;;8.66;61.48828;101846.8;;;;-76
2022/03/29 00:32:55;;;;;;;;;;;;;;;8.65;61.61914;101838.7;;;;-75
2022/03/29 00:37:57;;;;;;;;;;;;;;;8.63;61.54004;101833.6;;;;-76
2022/03/29 00:43:08;;;;;;;;;;;;;;;8.62;61.75879;101826.6;;;;-76
2022/03/29 00:48:02;;;;;;;;;;;;;;;8.6;61.91211;101828.4;;;;-74
2022/03/29 00:52:55;;;;;;;;;;;;;;;8.59;61.74414;101817.9;;;;-76
2022/03/29 00:53:10;;;;;;;19.5;7.8;;;;;;;;;;;;;-76
2022/03/29 00:57:58;;;;;;;;;;;;;;;8.57;61.83008;101818.1;;;;-75
2022/03/29 01:02:58;;;;;;;;;;;;;;;8.56;61.69629;101813.1;;;;-76
2022/03/29 01:08:00;;;;;;;;;;;;;;;8.55;62.02734;101808.8;;;;-77
2022/03/29 01:12:56;;;;;;;;;;;;;;;8.53;61.8584;101800.7;;;;-77
2022/03/29 01:17:59;;;;;;;;;;;;;;;8.52;62.2666;101804;;;;-76
2022/03/29 01:22:59;;;;;;;;;;;;;;;8.48;62.32617;101793.2;;;;-76
2022/03/29 01:23:10;;;;;;;17.3;7.4;;;;;;;;;;;;;-76
2022/03/29 01:27:56;;;;;;;;;;;;;;;8.45;62.13574;101788;;;;-76
2022/03/29 01:33:00;;;;;;;;;;;;;;;8.44;62.23242;101778.3;;;;-76
2022/03/29 01:37:59;;;;;;;;;;;;;;;8.4;62.46973;101778.5;;;;-77
2022/03/29 01:43:02;;;;;;;;;;;;;;;8.36;62.76465;101772;;;;-76
2022/03/29 01:47:55;;;;;;;;;;;;;;;8.35;62.70508;101770.5;;;;-75
2022/03/29 01:52:55;;;;;;;;;;;;;;;8.32;62.85742;101772.4;;;;-77
2022/03/29 01:53:11;;;;;;;18.2;7.5;;;;;;;;;;;;;-76
2022/03/29 01:57:56;;;;;;;;;;;;;;;8.31;62.86719;101765;;;;-75
2022/03/29 02:02:57;;;;;;;;;;;;;;;8.29;62.85254;101754.3;;;;-76
2022/03/29 02:07:57;;;;;;;;;;;;;;;8.28;62.70703;101745.2;;;;-76
2022/03/29 02:13:09;;;;;;;;;;;;;;;8.25;62.84668;101744.6;;;;-75
2022/03/29 02:17:56;;;;;;;;;;;;;;;8.22;63.0752;101742.2;;;;-75
2022/03/29 02:22:58;;;;;;;;;;;;;;;8.19;62.79492;101735.5;;;;-75
2022/03/29 02:23:15;;;;;;;18.3;7.7;;;;;;;;;;;;;-75
2022/03/29 02:28:02;;;;;;;;;;;;;;;8.17;62.69141;101728.5;;;;-76
2022/03/29 02:32:55;;;;;;;;;;;;;;;8.12;62.84961;101726.9;;;;-76
2022/03/29 02:37:55;;;;;;;;;;;;;;;8.1;62.79199;101717.9;;;;-76
2022/03/29 02:42:56;;;;;;;;;;;;;;;8.06;62.67676;101706.6;;;;-76
2022/03/29 02:47:59;;;;;;;;;;;;;;;8.03;62.56152;101705.2;;;;-76
2022/03/29 02:52:59;;;;;;;;;;;;;;;8.01;62.90137;101708.3;;;;-78
2022/03/29 02:53:11;;;;;;;17.9;7.7;;;;;;;;;;;;;-78
2022/03/29 02:57:56;;;;;;;;;;;;;;;7.98;62.77539;101698.7;;;;-75
2022/03/29 03:02:57;;;;;;;;;;;;;;;7.94;62.81348;101692.7;;;;-76
2022/03/29 03:07:56;;;;;;;;;;;;;;;7.9;63.0957;101685.1;;;;-75
2022/03/29 03:12:55;;;;;;;;;;;;;;;7.87;62.95801;101683.6;;;;-75
2022/03/29 03:17:58;;;;;;;;;;;;;;;7.84;62.89844;101679.6;;;;-76
2022/03/29 03:22:55;;;;;;;;;;;;;;;7.85;62.83203;101680.9;;;;-76
2022/03/29 03:23:11;;;;;;;17.4;7;;;;;;;;;;;;;-77
2022/03/29 03:27:59;;;;;;;;;;;;;;;7.84;62.89844;101677.4;;;;-75
2022/03/29 03:32:58;;;;;;;;;;;;;;;7.82;63.02832;101674.6;;;;-76
2022/03/29 03:37:55;;;;;;;;;;;;;;;7.81;62.98242;101669.3;;;;-75
2022/03/29 03:42:55;;;;;;;;;;;;;;;7.81;62.90527;101667.2;;;;-73
2022/03/29 03:47:55;;;;;;;;;;;;;;;7.8;63.38867;101665.6;;;;-76
2022/03/29 03:53:06;;;;;;;;;;;;;;;7.78;63.21094;101660.1;;;;-75
2022/03/29 03:53:18;;;;;;;21.2;7.7;;;;;;;;;;;;;-75
2022/03/29 03:57:57;;;;;;;;;;;;;;;7.78;62.94531;101664.8;;;;-74
2022/03/29 04:02:56;;;;;;;;;;;;;;;7.79;63.29004;101659.8;;;;-74
2022/03/29 04:07:56;;;;;;;;;;;;;;;7.76;62.9873;101653.1;;;;-77
2022/03/29 04:12:55;;;;;;;;;;;;;;;7.75;63.00684;101648.5;;;;-76
2022/03/29 04:18:01;;;;;;;;;;;;;;;7.74;62.9834;101643.7;;;;-77
2022/03/29 04:22:55;;;;;;;;;;;;;;;7.72;63.23438;101637.8;;;;-76
2022/03/29 04:23:12;;;;;;;17.4;7.3;;;;;;;;;;;;;-75
2022/03/29 04:28:02;;;;;;;;;;;;;;;7.7;63.38574;101630.4;;;;-76
2022/03/29 04:32:55;;;;;;;;;;;;;;;7.68;63.59375;101629.1;;;;-75
2022/03/29 04:37:55;;;;;;;;;;;;;;;7.65;63.83203;101627.5;;;;-75
2022/03/29 04:42:55;;;;;;;;;;;;;;;7.62;63.90527;101626.4;;;;-76
2022/03/29 04:47:55;;;;;;;;;;;;;;;7.63;63.71875;101622.3;;;;-76
2022/03/29 04:52:55;;;;;;;;;;;;;;;7.6;63.8252;101619.4;;;;-77
2022/03/29 04:53:11;;;;;;;18;7.5;;;;;;;;;;;;;-74
2022/03/29 04:57:58;;;;;;;;;;;;;;;7.59;63.34863;101615.5;;;;-77
2022/03/29 05:02:55;;;;;;;;;;;;;;;7.59;63.26074;101617.1;;;;-75
2022/03/29 05:07:55;;;;;;;;;;;;;;;7.59;63.31543;101606.1;;;;-76
2022/03/29 05:12:56;;;;;;;;;;;;;;;7.59;63.21582;101605;;;;-76
2022/03/29 05:17:55;;;;;;;;;;;;;;;7.58;63.44629;101600.6;;;;-75
2022/03/29 05:22:55;;;;;;;;;;;;;;;7.57;63.46582;101606;;;;-76
2022/03/29 05:23:11;;;;;;;16.6;7.2;;;;;;;;;;;;;-77
2022/03/29 05:27:57;;;;;;;;;;;;;;;7.57;63.67578;101608.7;;;;-74
2022/03/29 05:32:59;;;;;;;;;;;;;;;7.55;63.68262;101604.5;;;;-77
2022/03/29 05:38:01;;;;;;;;;;;;;;;7.55;63.58496;101605;;;;-77
2022/03/29 05:42:57;;;;;;;;;;;;;;;7.56;63.49902;101608.8;;;;-76
2022/03/29 05:52:55;;;;;;;;;;;;;;;7.55;63.58496;101591.9;;;;-76
2022/03/29 05:53:16;;;;;;;15.7;6.7;;;;;;;;;;;;;-77
2022/03/29 05:57:55;;;;;;;;;;;;;;;7.56;63.59863;101600.2;;;;-76
2022/03/29 06:02:57;;;;;;;;;;;;;;;7.58;63.3584;101610.3;;;;-77
2022/03/29 06:07:55;;;;;;;;;;;;;;;7.58;63.93262;101605.5;;;;-77
2022/03/29 06:12:55;;;;;;;;;;;;;;;7.6;63.75879;101604.6;;;;-76
2022/03/29 06:17:55;;;;;;;;;;;;;;;7.59;64.2207;101601.7;;;;-75
2022/03/29 06:22:55;;;;;;;;;;;;;;;7.61;64.06934;101590.3;;;;-76
2022/03/29 06:23:12;;;;;;;16.5;7.5;;;;;;;;;;;;;-76
2022/03/29 06:27:55;;;;;;;;;;;;;;;7.62;64.00293;101595.5;;;;-75
2022/03/29 06:32:56;;;;;;;;;;;;;;;7.61;64.62109;101602.5;;;;-75
2022/03/29 06:37:55;;;;;;;;;;;;;;;7.62;64.10352;101604.4;;;;-77
2022/03/29 06:42:57;;;;;;;;;;;;;;;7.63;64.32617;101603.2;;;;-77
2022/03/29 06:47:55;;;;;;;;;;;;;;;7.65;64.42969;101606.8;;;;-77
2022/03/29 06:52:55;;;;;;;;;;;;;;;7.66;64.35156;101602.4;;;;-76
2022/03/29 06:53:12;;;;;;;15.7;7.7;;;;;;;;;;;;;-76
2022/03/29 06:57:55;;;;;;;;;;;;;;;7.66;64.49512;101605.4;;;;-75
2022/03/29 07:03:02;;;;;;;;;;;;;;;7.68;64.47754;101601.5;;;;-77
2022/03/29 07:08:01;;;;;;;;;;;;;;;7.72;64.27148;101603.6;;;;-76
2022/03/29 07:12:59;;;;;;;;;;;;;;;7.75;64.64258;101607.9;;;;-77
2022/03/29 07:17:59;;;;;;;;;;;;;;;7.78;64.51465;101604.1;;;;-76
2022/03/29 07:23:00;;;;;;;;;;;;;;;7.83;64.32422;101601.1;;;;-75
2022/03/29 07:23:14;;;;;;;16.2;8;;;;;;;;;;;;;-76
2022/03/29 07:28:00;;;;;;;;;;;;;;;7.89;64.39844;101597.1;;;;-76
2022/03/29 07:32:58;;;;;;;;;;;;;;;7.95;64.63965;101600.9;;;;-76
2022/03/29 07:37:56;;;;;;;;;;;;;;;8.03;64.5166;101600;;;;-77
2022/03/29 07:42:58;;;;;;;;;;;;;;;8.11;64.38672;101590.1;;;;-76
2022/03/29 07:47:56;;;;;;;;;;;;;;;8.23;64.38184;101590.5;;;;-76
2022/03/29 07:52:59;;;;;;;;;;;;;;;8.32;64.25;101588.4;;;;-75
2022/03/29 07:53:14;;;;;;;16.2;8.1;;;;;;;;;;;;;-76
2022/03/29 07:58:06;;;;;;;;;;;;;;;8.39;64.15039;101579.6;;;;-75
2022/03/29 08:03:07;;;;;;;;;;;;;;;8.51;64.22461;101581.2;;;;-76
2022/03/29 08:08:05;;;;;;;;;;;;;;;8.67;63.72754;101576.1;;;;-77
2022/03/29 08:13:06;;;;;;;;;;;;;;;8.84;63.50879;101588.1;;;;-76
2022/03/29 08:17:55;;;;;;;;;;;;;;;8.99;63.3418;101581.5;;;;-78
2022/03/29 08:23:00;;;;;;;;;;;;;;;9.15;63.05469;101577.8;;;;-75
2022/03/29 08:23:14;;;;;;;19;9.3;;;;;;;;;;;;;-78
2022/03/29 08:27:58;;;;;;;;;;;;;;;9.3;62.88867;101576;;;;-76
2022/03/29 08:32:57;;;;;;;;;;;;;;;9.51;62.71875;101574.3;;;;-75
2022/03/29 08:37:55;;;;;;;;;;;;;;;9.81;61.96387;101574.3;;;;-75
2022/03/29 08:42:58;;;;;;;;;;;;;;;10.07;61.11035;101573.9;;;;-75
2022/03/29 08:47:59;;;;;;;;;;;;;;;10.26;60.88184;101574.3;;;;-77
2022/03/29 08:52:58;;;;;;;;;;;;;;;10.58;60.53613;101565.2;;;;-76
2022/03/29 08:53:15;;;;;;;21.5;9.8;;;;;;;;;;;;;-77
2022/03/29 08:57:56;;;;;;;;;;;;;;;10.89;59.90137;101570.9;;;;-77
2022/03/29 09:02:55;;;;;;;;;;;;;;;11;59.3252;101564.3;;;;-76
2022/03/29 09:08:08;;;;;;;;;;;;;;;11.08;59.0459;101566.5;;;;-76
2022/03/29 09:13:01;;;;;;;;;;;;;;;11.19;58.90332;101564.1;;;;-77
2022/03/29 09:18:01;;;;;;;;;;;;;;;11.22;58.66309;101563.9;;;;-76
2022/03/29 09:22:58;;;;;;;;;;;;;;;11.26;58.58984;101560.9;;;;-76
2022/03/29 09:23:21;;;;;;;20.2;9.5;;;;;;;;;;;;;-80
2022/03/29 09:28:16;;;;;;;;;;;;;;;11.33;58.63281;101559.2;;;;-76
2022/03/29 09:33:05;;;;;;;;;;;;;;;11.41;58.4541;101556.4;;;;-76
2022/03/29 09:37:55;;;;;;;;;;;;;;;11.53;58.53711;101556.1;;;;-75
2022/03/29 09:43:10;;;;;;;;;;;;;;;11.77;58.71484;101552.2;;;;-76
2022/03/29 09:47:57;;;;;;;;;;;;;;;12.11;57.94434;101542.6;;;;-77
2022/03/29 09:53:03;;;;;;;;;;;;;;;12.41;57.9834;101537.7;;;;-81
2022/03/29 09:53:43;;;;;;;21.6;10.6;;;;;;;;;;;;;-81
2022/03/29 09:58:04;;;;;;;;;;;;;;;12.75;57.41309;101532.1;;;;-78
2022/03/29 10:03:13;;;;;;;;;;;;;;;13.08;56.60547;101519.9;;;;-80
2022/03/29 10:13:25;;;;;;;;;;;;;;;;;;;;;
2022/03/29 10:18:31;;;;;;;;;;;;;;;13.66;55.71387;101520.5;;;;-79
2022/03/29 10:23:21;;;;;;;21.8;11;;;;;;;;;;;;;-82
2022/03/29 10:23:32;;;;;;;;;;;;;;;14;55.74512;101514.9;;;;-82
2022/03/29 10:28:33;;;;;;;;;;;;;;;14.2;54.44531;101508.3;;;;-82
2022/03/29 10:33:33;;;;;;;;;;;;;;;14.3;54.17676;101506.2;;;;-82
2022/03/29 10:38:45;;;;;;;;;;;;;;;14.46;54.30859;101499.1;;;;-81
2022/03/29 10:43:38;;;;;;;;;;;;;;;14.66;54.20898;101498.1;;;;-82
2022/03/29 10:48:31;;;;;;;;;;;;;;;14.82;54.11523;101497.8;;;;-81
2022/03/29 10:53:32;;;;;;;24.5;12.1;;;;;;;;;;;;;-80
2022/03/29 10:53:48;;;;;;;;;;;;;;;14.98;53.69629;101493.3;;;;-81
2022/03/29 10:58:29;;;;;;;;;;;;;;;15.16;54.31738;101488.2;;;;-81
2022/03/29 11:03:33;;;;;;;;;;;;;;;15.38;54.88477;101483.8;;;;-83
2022/03/29 11:08:29;;;;;;;;;;;;;;;15.63;56.34766;101483.5;;;;-82
2022/03/29 11:13:33;;;;;;;;;;;;;;;15.95;54.75293;101480.4;;;;-80
2022/03/29 11:18:54;;;;;;;;;;;;;;;16.24;54.94629;101481.1;;;;-81
2022/03/29 11:23:34;;;;;;;22.7;11.9;;;;;;;;;;;;;-82
2022/03/29 11:23:45;;;;;;;;;;;;;;;16.44;55.53516;101477.1;;;;-81
2022/03/29 11:28:30;;;;;;;;;;;;;;;16.52;55.08203;101473.2;;;;-80
2022/03/29 11:33:39;;;;;;;;;;;;;;;16.61;54.8125;101466.4;;;;-82
2022/03/29 11:38:29;;;;;;;;;;;;;;;16.72;54.90332;101458.4;;;;-82
2022/03/29 11:43:34;;;;;;;;;;;;;;;16.82;55.3584;101459.4;;;;-82
2022/03/29 11:48:29;;;;;;;;;;;;;;;16.99;55.05078;101445.1;;;;-83
2022/03/29 11:53:36;;;;;;;22.1;11.7;;;;;;;;;;;;;-83
2022/03/29 11:53:48;;;;;;;;;;;;;;;17.14;55.62402;101434.7;;;;-82
2022/03/29 11:58:39;;;;;;;;;;;;;;;17.38;55.76758;101427.8;;;;-83
2022/03/29 12:03:38;;;;;;;;;;;;;;;17.59;55.38574;101416.8;;;;-82
2022/03/29 12:08:31;;;;;;;;;;;;;;;17.77;54.41211;101409.4;;;;-83
2022/03/29 12:13:37;;;;;;;;;;;;;;;17.87;54.00391;101400;;;;-83
2022/03/29 12:18:51;;;;;;;;;;;;;;;17.85;54.41016;101393.1;;;;-82
2022/03/29 12:23:28;;;;;;;22.7;11.8;;;;;;;;;;;;;-82
2022/03/29 12:23:51;;;;;;;;;;;;;;;17.96;53.54883;101372.4;;;;-80
2022/03/29 12:28:30;;;;;;;;;;;;;;;18.02;53.1377;101374.3;;;;-80
2022/03/29 12:33:37;;;;;;;;;;;;;;;18.03;53.58203;101360.6;;;;-80
2022/03/29 12:38:30;;;;;;;;;;;;;;;18.08;53.85938;101353.3;;;;-80
2022/03/29 12:43:33;;;;;;;;;;;;;;;18.16;53.66504;101344.5;;;;-78
2022/03/29 12:48:29;;;;;;;;;;;;;;;18.28;53.55469;101338.7;;;;-80
2022/03/29 12:53:29;;;;;;;21;11.7;;;;;;;;;;;;;-81
2022/03/29 12:53:56;;;;;;;;;;;;;;;18.39;52.91992;101327.2;;;;-80
2022/03/29 12:58:39;;;;;;;;;;;;;;;18.43;52.58398;101323;;;;-79
2022/03/29 13:03:41;;;;;;;;;;;;;;;18.41;53.43359;101311.8;;;;-81
2022/03/29 13:08:31;;;;;;;;;;;;;;;18.49;54.5791;101307.4;;;;-82
2022/03/29 13:13:36;;;;;;;;;;;;;;;18.63;54.6416;101298.3;;;;-80
2022/03/29 13:18:35;;;;;;;;;;;;;;;18.82;53.97266;101290.2;;;;-81
2022/03/29 13:23:45;;;;;;;;;;;;;;;18.98;53.55957;101295.8;;;;-78
2022/03/29 13:24:12;;;;;;;19.3;11.1;;;;;;;;;;;;;-78
2022/03/29 13:28:42;;;;;;;;;;;;;;;19.08;52.77539;101288.6;;;;-82
2022/03/29 13:33:42;;;;;;;;;;;;;;;19.19;52.77539;101283.9;;;;-84
2022/03/29 13:38:35;;;;;;;;;;;;;;;19.24;52.51074;101282.8;;;;-83
2022/03/29 13:43:51;;;;;;;;;;;;;;;19.28;53.26465;101277.7;;;;-81
2022/03/29 13:48:35;;;;;;;;;;;;;;;19.35;53.11523;101269.3;;;;-82
2022/03/29 13:54:16;;;;;;;21.5;11;;;;;;;;;;;;;-81
2022/03/29 13:58:43;;;;;;;;;;;;;;;;;;;;;
2022/03/29 14:03:39;;;;;;;;;;;;;;;19.43;51.33594;101251.4;;;;-82
2022/03/29 14:08:39;;;;;;;;;;;;;;;19.44;51.49805;101250.4;;;;-82
2022/03/29 14:13:48;;;;;;;;;;;;;;;19.5;50.95703;101246.1;;;;-82
2022/03/29 14:18:43;;;;;;;;;;;;;;;19.5;49.60156;101230.2;;;;-84
2022/03/29 14:23:34;;;;;;;;;;;;;;;19.44;50.00586;101228.8;;;;-80
2022/03/29 14:23:49;;;;;;;20.3;10.6;;;;;;;;;;;;;-80
2022/03/29 14:28:32;;;;;;;;;;;;;;;19.37;50.54395;101225;;;;-83
2022/03/29 14:33:30;;;;;;;;;;;;;;;19.36;49.81445;101222.8;;;;-81
2022/03/29 14:38:46;;;;;;;;;;;;;;;19.32;49.51367;101212.5;;;;-83
2022/03/29 14:43:32;;;;;;;;;;;;;;;19.29;50.02344;101209.2;;;;-81
2022/03/29 14:48:34;;;;;;;;;;;;;;;19.3;48.78125;101201.6;;;;-81
2022/03/29 14:53:52;;;;;;;;;;;;;;;19.21;48.77246;101194.8;;;;-83
2022/03/29 14:54:16;;;;;;;19.5;10.4;;;;;;;;;;;;;-83
2022/03/29 14:58:45;;;;;;;;;;;;;;;19.1;48.70215;101186.8;;;;-81
2022/03/29 15:03:31;;;;;;;;;;;;;;;19.01;49.1709;101191;;;;-83
2022/03/29 15:08:36;;;;;;;;;;;;;;;18.98;49.77148;101181.2;;;;-81
2022/03/29 15:13:37;;;;;;;;;;;;;;;18.95;48.81152;101173.5;;;;-83
2022/03/29 15:18:37;;;;;;;;;;;;;;;18.86;49.00586;101173.7;;;;-83
2022/03/29 15:23:36;;;;;;;;;;;;;;;18.77;49.24707;101171.9;;;;-83
2022/03/29 15:24:03;;;;;;;22.2;11.9;;;;;;;;;;;;;-83
2022/03/29 15:28:35;;;;;;;;;;;;;;;18.67;49.00781;101157.2;;;;-84
2022/03/29 15:33:41;;;;;;;;;;;;;;;18.55;48.89258;101152;;;;-84
2022/03/29 15:38:30;;;;;;;;;;;;;;;18.43;48.96973;101145.4;;;;-83
2022/03/29 15:43:31;;;;;;;;;;;;;;;18.33;49.5957;101142.4;;;;-82
2022/03/29 15:48:32;;;;;;;;;;;;;;;18.21;49.50391;101144.8;;;;-82
2022/03/29 15:53:33;;;;;;;;;;;;;;;18.1;49.05859;101137.8;;;;-82
2022/03/29 16:03:01;;;;;;;;;;;;;;;17.87;48.94238;101132.8;;;;-81
2022/03/29 16:08:02;;;;;;;;;;;;;;;17.68;49.11426;101130.5;;;;-81
2022/03/29 16:13:09;;;;;;;;;;;;;;;17.57;49.24902;101124;;;;-81
2022/03/29 16:18:02;;;;;;;;;;;;;;;17.43;49.05273;101125.6;;;;-82
2022/03/29 16:23:03;;;;;;;;;;;;;;;17.27;49.19238;101123.7;;;;-81
2022/03/29 16:23:46;;;;;;;22.8;10.3;;;;;;;;;;;;;-81
2022/03/29 16:28:02;;;;;;;;;;;;;;;17.09;49.08301;101115.1;;;;-84
2022/03/29 16:33:02;;;;;;;;;;;;;;;16.94;49.33789;101115.3;;;;-83
2022/03/29 16:38:14;;;;;;;;;;;;;;;16.78;49.45703;101111.1;;;;-84
2022/03/29 16:43:02;;;;;;;;;;;;;;;16.59;49.50293;101108;;;;-82
2022/03/29 16:48:02;;;;;;;;;;;;;;;16.38;49.34375;101106;;;;-81
2022/03/29 16:53:16;;;;;;;;;;;;;;;16.17;49.62598;101108.2;;;;-83
2022/03/29 16:53:49;;;;;;;17.3;8.8;;;;;;;;;;;;;-84
2022/03/29 16:58:01;;;;;;;;;;;;;;;15.94;49.57715;101108.5;;;;-82
2022/03/29 17:03:01;;;;;;;;;;;;;;;15.72;49.64258;101101.6;;;;-85
2022/03/29 17:08:02;;;;;;;;;;;;;;;15.48;49.75098;101105.6;;;;-82
2022/03/29 17:13:01;;;;;;;;;;;;;;;15.21;50.08203;101109.3;;;;-83
2022/03/29 17:18:04;;;;;;;;;;;;;;;14.98;50.16797;101109.2;;;;-82
2022/03/29 17:23:02;;;;;;;;;;;;;;;14.73;50.28809;101113.3;;;;-81
2022/03/29 17:23:50;;;;;;;17.5;7.9;;;;;;;;;;;;;-82
2022/03/29 17:28:02;;;;;;;;;;;;;;;14.48;50.42676;101117.5;;;;-83
2022/03/29 17:33:01;;;;;;;;;;;;;;;14.23;50.58887;101110.6;;;;-80
2022/03/29 17:38:03;;;;;;;;;;;;;;;13.97;50.85156;101113;;;;-83
2022/03/29 17:43:07;;;;;;;;;;;;;;;13.73;50.79102;101113;;;;-83
2022/03/29 17:48:03;;;;;;;;;;;;;;;13.49;50.93164;101114.3;;;;-83
2022/03/29 17:53:02;;;;;;;;;;;;;;;13.24;51.11523;101114.4;;;;-82
2022/03/29 17:53:52;;;;;;;18;7.6;;;;;;;;;;;;;-81
2022/03/29 17:58:02;;;;;;;;;;;;;;;12.99;51.22266;101112.5;;;;-83
2022/03/29 18:03:01;;;;;;;;;;;;;;;12.74;51.4502;101110.8;;;;-84
2022/03/29 18:08:01;;;;;;;;;;;;;;;12.5;51.75879;101111;;;;-83
2022/03/29 18:13:01;;;;;;;;;;;;;;;12.27;51.97754;101111.4;;;;-82
2022/03/29 18:18:01;;;;;;;;;;;;;;;12.03;52.20605;101117.5;;;;-82
2022/03/29 18:23:01;;;;;;;;;;;;;;;11.81;52.55957;101118.7;;;;-83
2022/03/29 18:23:54;;;;;;;15.1;6.9;;;;;;;;;;;;;-82
2022/03/29 18:28:03;;;;;;;;;;;;;;;11.61;52.89355;101126.7;;;;-84
2022/03/29 18:33:03;;;;;;;;;;;;;;;11.4;53.04785;101126.2;;;;-81
2022/03/29 18:38:01;;;;;;;;;;;;;;;11.21;53.40527;101123.3;;;;-85
2022/03/29 18:43:01;;;;;;;;;;;;;;;11.04;53.60742;101120;;;;-81
2022/03/29 18:48:02;;;;;;;;;;;;;;;10.88;53.86621;101119;;;;-82
2022/03/29 18:53:02;;;;;;;;;;;;;;;10.71;54.15723;101120.2;;;;-82
2022/03/29 18:53:55;;;;;;;13.9;6.6;;;;;;;;;;;;;-82
2022/03/29 18:58:02;;;;;;;;;;;;;;;10.57;54.33105;101118.4;;;;-83
2022/03/29 19:03:03;;;;;;;;;;;;;;;10.43;54.46875;101110.6;;;;-83
2022/03/29 19:08:10;;;;;;;;;;;;;;;10.33;54.64453;101106.8;;;;-82
2022/03/29 19:13:02;;;;;;;;;;;;;;;10.21;55.00879;101104.4;;;;-81
2022/03/29 19:18:01;;;;;;;;;;;;;;;10.11;55.19629;101108.8;;;;-83
2022/03/29 19:23:03;;;;;;;;;;;;;;;10;55.41797;101104.7;;;;-84
2022/03/29 19:23:56;;;;;;;17.2;6.4;;;;;;;;;;;;;-82
2022/03/29 19:28:02;;;;;;;;;;;;;;;9.91;55.66113;101102.3;;;;-81
2022/03/29 19:33:05;;;;;;;;;;;;;;;9.81;55.77051;101097;;;;-83
2022/03/29 19:38:02;;;;;;;;;;;;;;;9.74;56.04004;101103.8;;;;-83
2022/03/29 19:43:12;;;;;;;;;;;;;;;9.66;56.29688;101101.3;;;;-82
2022/03/29 19:48:02;;;;;;;;;;;;;;;9.59;56.50977;101101.9;;;;-82
2022/03/29 19:53:04;;;;;;;;;;;;;;;9.53;56.71387;101105.7;;;;-83
2022/03/29 19:53:57;;;;;;;15.9;6.6;;;;;;;;;;;;;-83
2022/03/29 19:58:01;;;;;;;;;;;;;;;9.46;56.66016;101105.3;;;;-82
2022/03/29 20:03:03;;;;;;;;;;;;;;;9.38;56.77148;101096.9;;;;-83
2022/03/29 20:08:01;;;;;;;;;;;;;;;9.31;56.96289;101097.9;;;;-83
2022/03/29 20:13:01;;;;;;;;;;;;;;;9.23;56.95215;101094.6;;;;-83
2022/03/29 20:18:03;;;;;;;;;;;;;;;9.13;57.2168;101092.6;;;;-83
2022/03/29 20:23:02;;;;;;;;;;;;;;;9.05;57.18359;101094.2;;;;-82
2022/03/29 20:23:57;;;;;;;14.4;6;;;;;;;;;;;;;-83
2022/03/29 20:28:02;;;;;;;;;;;;;;;8.97;57.32813;101089.4;;;;-84
2022/03/29 20:33:02;;;;;;;;;;;;;;;8.88;57.49512;101083.3;;;;-82
2022/03/29 20:38:01;;;;;;;;;;;;;;;8.79;57.51563;101084.5;;;;-82
2022/03/29 20:43:01;;;;;;;;;;;;;;;8.72;57.66113;101081.2;;;;-83
2022/03/29 20:48:03;;;;;;;;;;;;;;;8.63;57.62891;101083.7;;;;-82
2022/03/29 20:53:01;;;;;;;;;;;;;;;8.54;57.69336;101081.6;;;;-85
2022/03/29 20:53:58;;;;;;;14.4;6.4;;;;;;;;;;;;;-81
2022/03/29 20:58:06;;;;;;;;;;;;;;;8.45;57.71484;101074.3;;;;-85
2022/03/29 21:03:06;;;;;;;;;;;;;;;8.35;57.87695;101070.8;;;;-83
2022/03/29 21:08:02;;;;;;;;;;;;;;;8.26;58.02246;101065.4;;;;-84
2022/03/29 21:13:08;;;;;;;;;;;;;;;8.16;58.15332;101058;;;;-81
2022/03/29 21:18:10;;;;;;;;;;;;;;;8.09;58.30957;101063.2;;;;-82
2022/03/29 21:23:21;;;;;;;;;;;;;;;8.02;58.33301;101062.8;;;;-82
2022/03/29 21:23:59;;;;;;;16.6;5.9;;;;;;;;;;;;;-83
2022/03/29 21:28:02;;;;;;;;;;;;;;;7.95;58.55566;101069;;;;-73
2022/03/29 21:33:01;;;;;;;;;;;;;;;7.86;58.78711;101066.2;;;;-77
2022/03/29 21:38:01;;;;;;;;;;;;;;;7.8;58.95508;101067.1;;;;-77
2022/03/29 21:43:04;;;;;;;;;;;;;;;7.73;58.87012;101072;;;;-78
2022/03/29 21:48:03;;;;;;;;;;;;;;;7.66;58.83887;101067.2;;;;-76
2022/03/29 21:53:01;;;;;;;;;;;;;;;7.59;58.93945;101062;;;;-78
2022/03/29 21:53:59;;;;;;;13.2;5.4;;;;;;;;;;;;;-77
2022/03/29 21:58:04;;;;;;;;;;;;;;;7.53;58.96387;101059.8;;;;-76
2022/03/29 22:03:01;;;;;;;;;;;;;;;7.45;59.15137;101055.4;;;;-77
2022/03/29 22:08:01;;;;;;;;;;;;;;;7.4;59.24512;101055.6;;;;-78
2022/03/29 22:13:01;;;;;;;;;;;;;;;7.35;59.36914;101052.2;;;;-76
2022/03/29 22:18:01;;;;;;;;;;;;;;;7.3;59.40625;101052.7;;;;-77
2022/03/29 22:23:01;;;;;;;;;;;;;;;7.25;59.54395;101055.1;;;;-77
2022/03/29 22:24:00;;;;;;;13.1;5.3;;;;;;;;;;;;;-78
2022/03/29 22:28:01;;;;;;;;;;;;;;;7.2;59.46973;101056.9;;;;-77
2022/03/29 22:33:02;;;;;;;;;;;;;;;7.15;59.6416;101058;;;;-78
2022/03/29 22:48:03;;;;;;;;;;;;;;;7.01;60.10742;101049.3;;;;-80
2022/03/29 22:53:09;;;;;;;;;;;;;;;6.96;59.94531;101046.6;;;;-81
2022/03/29 22:54:01;;;;;;;14.2;5.4;;;;;;;;;;;;;-80
2022/03/29 22:58:03;;;;;;;;;;;;;;;6.91;59.7832;101040.9;;;;-80
2022/03/29 23:03:02;;;;;;;;;;;;;;;6.85;59.70996;101044.1;;;;-80
2022/03/29 23:08:03;;;;;;;;;;;;;;;6.78;59.67773;101039.5;;;;-79
2022/03/29 23:13:08;;;;;;;;;;;;;;;6.71;59.72363;101037.5;;;;-80
2022/03/29 23:18:09;;;;;;;;;;;;;;;6.65;59.58301;101033;;;;-78
2022/03/29 23:23:06;;;;;;;;;;;;;;;6.58;59.68262;101037.6;;;;-80
2022/03/29 23:24:01;;;;;;;15.8;5.3;;;;;;;;;;;;;-79
2022/03/29 23:28:07;;;;;;;;;;;;;;;6.52;59.64258;101040.8;;;;-80
2022/03/29 23:33:19;;;;;;;;;;;;;;;6.46;59.60059;101039.1;;;;-80
2022/03/29 23:38:16;;;;;;;;;;;;;;;6.41;59.49512;101030.9;;;;-80
2022/03/29 23:43:08;;;;;;;;;;;;;;;6.33;59.58301;101030.8;;;;-79
2022/03/29 23:48:21;;;;;;;;;;;;;;;6.24;59.62695;101026.9;;;;-80
2022/03/29 23:53:10;;;;;;;;;;;;;;;6.17;59.57227;101026.6;;;;-80
2022/03/29 23:54:02;;;;;;;14;5.1;;;;;;;;;;;;;-80
2022/03/29 23:58:11;;;;;;;;;;;;;;;6.08;59.64844;101026.2;;;;-80
